Terminal Aerodrome Forecast
Issued by NWS

Home | Current Version | Previous Version | Text Only | Print | Product List | Glossary On
Versions: 1 2 3 4 5 6 7 8 9 10 11 12 13 14 15 16 17 18 19 20
501
FTUS44 KLZK 251120
TAFBPK
TAF
KBPK 251120Z 2512/2612 VRB04KT P6SM SCT100 BKN250
     FM251500 33006KT P6SM -RA VCTS SCT040CB BKN100 OVC250
     FM251900 33008KT P6SM -TSRA BKN050CB OVC100
     FM252200 27007KT 5SM -RA BR SCT010 OVC025
      TEMPO 2522/2602 3SM -RA BR OVC010
     FM260200 33006KT 3SM -RA BR OVC007=

USA.gov is the U.S. government's official web portal to all federal, state and local government web resources and services.